createdAt,value
2016-05-11T00:00:12.587Z,49.43
2016-05-11T00:01:12.559Z,49.81
2016-05-11T00:02:12.530Z,49.62
2016-05-11T00:03:12.486Z,49.62
2016-05-11T00:04:12.458Z,49.24
2016-05-11T00:05:12.428Z,49.33
2016-05-11T00:06:12.400Z,48.75
2016-05-11T00:07:12.372Z,49.05
2016-05-11T00:08:12.343Z,48.85
2016-05-11T00:09:12.315Z,48.75
2016-05-11T00:10:12.286Z,48.75
2016-05-11T00:11:12.241Z,48.49
2016-05-11T00:12:12.214Z,48.57
2016-05-11T00:13:12.185Z,48.66
2016-05-11T00:14:12.155Z,48.59
2016-05-11T00:15:12.128Z,48.3
2016-05-11T00:16:12.099Z,48.4
2016-05-11T00:17:12.071Z,48.11
2016-05-11T00:18:12.041Z,47.99
2016-05-11T00:19:12.013Z,48.02
2016-05-11T00:20:11.985Z,48.02
2016-05-11T00:21:11.956Z,48.4
2016-05-11T00:22:11.912Z,47.82
2016-05-11T00:23:11.884Z,48.21
2016-05-11T00:24:11.854Z,47.73
2016-05-11T00:25:11.827Z,47.82
2016-05-11T00:26:11.798Z,47.73
2016-05-11T00:27:11.770Z,47.92
2016-05-11T00:28:11.726Z,47.82
2016-05-11T00:29:11.696Z,47.53
2016-05-11T00:30:12.028Z,47.53
2016-05-11T00:31:11.639Z,47.92
2016-05-11T00:32:11.611Z,47.82
2016-05-11T00:33:11.582Z,47.63
2016-05-11T00:34:11.554Z,47.44
2016-05-11T00:35:11.525Z,47.63
2016-05-11T00:36:11.497Z,47.44
2016-05-11T00:37:11.453Z,46.86
2016-05-11T00:38:11.424Z,47.63
2016-05-11T00:39:11.411Z,47.34
2016-05-11T00:40:11.367Z,47.63
2016-05-11T00:41:11.338Z,47.25
2016-05-11T00:42:11.310Z,47.63
2016-05-11T00:43:11.280Z,47.63
2016-05-11T00:44:11.253Z,47.63
2016-05-11T00:45:11.364Z,47.25
2016-05-11T00:46:11.180Z,47.92
2016-05-11T00:47:11.152Z,47.53
2016-05-11T00:48:11.122Z,48.4
2016-05-11T00:49:11.094Z,48.49
2016-05-11T00:50:11.066Z,49.65
2016-05-11T00:51:11.037Z,50.03
2016-05-11T00:52:11.008Z,50.2
2016-05-11T00:53:10.979Z,50.1
2016-05-11T00:54:10.951Z,50.29
2016-05-11T00:55:10.923Z,50.58
2016-05-11T00:56:10.910Z,50.77
2016-05-11T00:57:10.850Z,50.77
2016-05-11T00:58:10.821Z,50.67
2016-05-11T00:59:10.793Z,50.1
2016-05-11T01:00:10.779Z,50.38
2016-05-11T01:01:10.736Z,50
2016-05-11T01:02:10.706Z,49.91
2016-05-11T01:03:10.662Z,50
2016-05-11T01:04:10.634Z,50.38
2016-05-11T01:05:10.622Z,50.48
2016-05-11T01:06:10.578Z,50.2
2016-05-11T01:07:10.548Z,50.77
2016-05-11T01:08:10.520Z,50.2
2016-05-11T01:09:10.491Z,50.65
2016-05-11T01:10:10.463Z,50.65
2016-05-11T01:11:10.434Z,50.65
2016-05-11T01:12:10.391Z,49.98
2016-05-11T01:13:10.362Z,51.13
2016-05-11T01:14:10.333Z,50.65
2016-05-11T01:15:10.742Z,50.65
2016-05-11T01:16:10.276Z,50.65
2016-05-11T01:17:10.248Z,51.22
2016-05-11T01:18:10.202Z,51.03
2016-05-11T01:19:10.190Z,51.61
2016-05-11T01:20:10.146Z,51.42
2016-05-11T01:21:10.118Z,52.18
2016-05-11T01:22:10.089Z,51.89
2016-05-11T01:23:10.060Z,52.09
2016-05-11T01:24:10.032Z,52.37
2016-05-11T01:25:10.003Z,52.09
2016-05-11T01:26:09.960Z,52.75
2016-05-11T01:27:09.931Z,52.85
2016-05-11T01:28:09.902Z,52.56
2016-05-11T01:29:09.874Z,53.04
2016-05-11T01:30:09.845Z,53.04
2016-05-11T01:31:09.816Z,52.83
2016-05-11T01:32:09.787Z,53.4
2016-05-11T01:33:09.760Z,52.92
2016-05-11T01:34:09.731Z,53.42
2016-05-11T01:35:09.687Z,52.54
2016-05-11T01:36:09.658Z,52.44
2016-05-11T01:37:09.629Z,52.54
2016-05-11T01:38:09.600Z,53.59
2016-05-11T01:39:09.573Z,53.49
2016-05-11T01:40:09.544Z,53.69
2016-05-11T01:41:09.499Z,54.07
2016-05-11T01:42:09.472Z,54.55
2016-05-11T01:43:09.458Z,54.26
2016-05-11T01:44:09.461Z,55.02
2016-05-11T01:45:09.386Z,54.64
2016-05-11T01:46:09.357Z,55.51
2016-05-11T01:47:09.327Z,54.93
2016-05-11T01:48:09.283Z,56.17
2016-05-11T01:49:09.256Z,56.65
2016-05-11T01:50:09.227Z,57.23
2016-05-11T01:51:09.199Z,57.48
2016-05-11T01:52:09.169Z,57.97
2016-05-11T01:53:09.188Z,57.77
2016-05-11T01:54:09.097Z,58.73
2016-05-11T01:55:09.068Z,58.44
2016-05-11T01:56:09.040Z,59.2
2016-05-11T01:57:09.012Z,59.01
2016-05-11T01:58:08.983Z,59.49
2016-05-11T01:59:08.954Z,59.3
2016-05-11T02:00:08.910Z,59.69
2016-05-11T02:01:08.881Z,59.59
2016-05-11T02:02:08.853Z,59.78
2016-05-11T02:03:08.823Z,60.06
2016-05-11T02:04:08.796Z,60.33
2016-05-11T02:05:08.768Z,60.04
2016-05-11T02:06:08.739Z,60.13
2016-05-11T02:07:08.694Z,60.42
2016-05-11T02:08:08.666Z,60.13
2016-05-11T02:09:08.637Z,60.13
2016-05-11T02:10:08.608Z,60.33
2016-05-11T02:11:08.580Z,60.71
2016-05-11T02:12:08.536Z,60.8
2016-05-11T02:13:08.508Z,60.8
2016-05-11T02:14:08.478Z,61.38
2016-05-11T02:15:08.450Z,61.76
2016-05-11T02:16:08.422Z,61.47
2016-05-11T02:17:08.394Z,61.47
2016-05-11T02:18:08.349Z,61.95
2016-05-11T02:19:08.321Z,61.92
2016-05-11T02:20:08.292Z,61.82
2016-05-11T02:21:08.279Z,62.21
2016-05-11T02:22:08.219Z,62.21
2016-05-11T02:23:08.207Z,62.4
2016-05-11T02:24:08.162Z,62.59
2016-05-11T02:25:08.133Z,63.16
2016-05-11T02:26:08.104Z,62.97
2016-05-11T02:27:08.076Z,63.45
2016-05-11T02:28:08.032Z,63.45
2016-05-11T02:29:08.004Z,63.93
2016-05-11T02:30:07.975Z,63.73
2016-05-11T02:31:07.946Z,64.02
2016-05-11T02:32:07.902Z,64.09
2016-05-11T02:33:07.874Z,64.37
2016-05-11T02:34:07.845Z,64.28
2016-05-11T02:35:07.817Z,64.65
2016-05-11T02:36:07.787Z,64.65
2016-05-11T02:37:07.744Z,64.94
2016-05-11T02:38:07.715Z,64.56
2016-05-11T02:39:07.687Z,64.56
2016-05-11T02:40:07.659Z,64.94
2016-05-11T02:41:07.630Z,64.94
2016-05-11T02:42:07.586Z,65.23
2016-05-11T02:43:07.556Z,65.8
2016-05-11T02:44:07.528Z,65.42
2016-05-11T02:45:07.499Z,65.9
2016-05-11T02:46:07.472Z,65.71
2016-05-11T02:47:07.442Z,65.71
2016-05-11T02:48:07.399Z,66.09
2016-05-11T02:49:07.370Z,66.35
2016-05-11T02:50:07.341Z,66.35
2016-05-11T02:51:07.313Z,66.63
2016-05-11T02:52:07.285Z,66.53
2016-05-11T02:53:07.240Z,66.82
2016-05-11T02:54:07.211Z,67.01
2016-05-11T02:55:07.183Z,66.82
2016-05-11T02:56:07.154Z,66.92
2016-05-11T02:57:07.126Z,67.21
2016-05-11T02:58:07.081Z,67.01
2016-05-11T02:59:07.054Z,67.21
2016-05-11T03:00:07.025Z,67.87
2016-05-11T03:01:06.980Z,67.77
2016-05-11T03:02:06.951Z,67.87
2016-05-11T03:03:06.923Z,68.16
2016-05-11T03:04:06.894Z,67.87
2016-05-11T03:05:06.865Z,68.06
2016-05-11T03:06:06.869Z,68.63
2016-05-11T03:07:06.809Z,68.54
2016-05-11T03:08:06.765Z,68.73
2016-05-11T03:09:06.720Z,68.63
2016-05-11T03:10:06.708Z,69.21
2016-05-11T03:11:06.663Z,69.21
2016-05-11T03:12:06.634Z,69.11
2016-05-11T03:13:06.606Z,69.59
2016-05-11T03:14:06.578Z,69.4
2016-05-11T03:15:06.549Z,69.87
2016-05-11T03:16:06.505Z,69.46
2016-05-11T03:17:06.477Z,69.59
2016-05-11T03:18:06.448Z,69.87
2016-05-11T03:19:06.419Z,70.07
2016-05-11T03:20:06.375Z,69.87
2016-05-11T03:21:06.346Z,70.03
2016-05-11T03:22:06.318Z,69.84
2016-05-11T03:23:06.274Z,69.46
2016-05-11T03:24:06.245Z,69.37
2016-05-11T03:25:06.217Z,69.74
2016-05-11T03:26:06.188Z,69.56
2016-05-11T03:27:06.144Z,69.84
2016-05-11T03:28:06.116Z,69.65
2016-05-11T03:29:06.087Z,69.84
2016-05-11T03:30:06.057Z,70.32
2016-05-11T03:31:06.021Z,70.32
2016-05-11T03:32:06.031Z,70.79
2016-05-11T03:33:06.042Z,70.89
2016-05-11T03:34:06.054Z,70.89
2016-05-11T03:35:06.049Z,70.89
2016-05-11T03:36:06.056Z,70.98
2016-05-11T03:37:06.041Z,70.79
2016-05-11T03:38:06.027Z,70.98
2016-05-11T03:39:05.997Z,71.18
2016-05-11T03:40:05.983Z,71.18
2016-05-11T03:41:05.967Z,70.7
2016-05-11T03:42:05.944Z,70.61
2016-05-11T03:43:05.904Z,71.08
2016-05-11T03:44:05.880Z,71.18
2016-05-11T03:45:06.217Z,70.98
2016-05-11T03:46:05.833Z,70.98
2016-05-11T03:47:05.807Z,70.79
2016-05-11T03:48:05.764Z,70.89
2016-05-11T03:49:05.737Z,71.08
2016-05-11T03:50:05.710Z,70.79
2016-05-11T03:51:05.668Z,70.98
2016-05-11T03:52:05.639Z,71.08
2016-05-11T03:53:05.612Z,70.89
2016-05-11T03:54:05.584Z,71.08
2016-05-11T03:55:05.555Z,70.79
2016-05-11T03:56:05.512Z,70.79
2016-05-11T03:57:05.483Z,70.98
2016-05-11T03:58:05.455Z,71.27
2016-05-11T03:59:05.411Z,71.75
2016-05-11T04:00:05.383Z,71.46
2016-05-11T04:01:05.356Z,71.46
2016-05-11T04:02:05.326Z,71.46
2016-05-11T04:03:05.298Z,71.56
2016-05-11T04:04:05.254Z,71.46
2016-05-11T04:05:05.225Z,71.84
2016-05-11T04:06:05.196Z,71.27
2016-05-11T04:07:05.168Z,71.27
2016-05-11T04:08:05.125Z,71.27
2016-05-11T04:09:05.095Z,71.27
2016-05-11T04:10:05.067Z,71.46
2016-05-11T04:11:05.022Z,71.27
2016-05-11T04:12:04.993Z,71.56
2016-05-11T04:13:04.965Z,71.37
2016-05-11T04:14:04.922Z,71.46
2016-05-11T04:15:04.893Z,71.46
2016-05-11T04:16:04.864Z,71.66
2016-05-11T04:17:04.835Z,70.98
2016-05-11T04:18:04.807Z,71.27
2016-05-11T04:19:04.763Z,70.89
2016-05-11T04:20:04.734Z,71.08
2016-05-11T04:21:04.690Z,70.89
2016-05-11T04:22:04.662Z,70.36
2016-05-11T04:23:04.632Z,69.68
2016-05-11T04:24:04.604Z,69.74
2016-05-11T04:25:04.576Z,69.78
2016-05-11T04:26:04.532Z,69.21
2016-05-11T04:27:04.504Z,68.44
2016-05-11T04:28:04.475Z,68.06
2016-05-11T04:29:04.446Z,67.87
2016-05-11T04:30:04.401Z,67.3
2016-05-11T04:31:04.373Z,66.72
2016-05-11T04:32:04.344Z,66.28
2016-05-11T04:33:04.317Z,67.14
2016-05-11T04:34:04.272Z,67.33
2016-05-11T04:35:04.243Z,67.33
2016-05-11T04:36:04.230Z,66.66
2016-05-11T04:37:04.186Z,66.66
2016-05-11T04:38:04.157Z,66.85
2016-05-11T04:39:04.114Z,67.24
2016-05-11T04:40:04.085Z,66.76
2016-05-11T04:41:04.056Z,66.38
2016-05-11T04:42:04.028Z,65.42
2016-05-11T04:43:03.999Z,65.04
2016-05-11T04:44:03.955Z,65.36
2016-05-11T04:45:03.927Z,65.36
2016-05-11T04:46:03.898Z,65.07
2016-05-11T04:47:03.869Z,64.98
2016-05-11T04:48:03.841Z,65.74
2016-05-11T04:49:03.796Z,65.17
2016-05-11T04:50:03.768Z,64.91
2016-05-11T04:51:03.740Z,63.76
2016-05-11T04:52:03.710Z,63.19
2016-05-11T04:53:03.667Z,62.24
2016-05-11T04:54:03.638Z,61.38
2016-05-11T04:55:03.609Z,60.99
2016-05-11T04:56:03.582Z,58.54
2016-05-11T04:57:03.552Z,57.58
2016-05-11T04:58:03.540Z,57.97
2016-05-11T04:59:03.479Z,57.1
2016-05-11T05:00:03.451Z,56.05
2016-05-11T05:01:03.422Z,55.67
2016-05-11T05:02:03.395Z,54.64
2016-05-11T05:03:03.365Z,54.36
2016-05-11T05:04:03.337Z,54.55
2016-05-11T05:05:03.293Z,53.69
2016-05-11T05:06:03.264Z,54.16
2016-05-11T05:07:03.236Z,53.42
2016-05-11T05:08:03.207Z,53.62
2016-05-11T05:09:03.178Z,53.14
2016-05-11T05:10:03.197Z,53.14
2016-05-11T05:11:03.122Z,52.56
2016-05-11T05:12:03.093Z,51.7
2016-05-11T05:13:03.049Z,52.28
2016-05-11T05:14:03.020Z,51.7
2016-05-11T05:15:03.007Z,51.92
2016-05-11T05:16:03.494Z,51.44
2016-05-11T05:17:02.935Z,51.44
2016-05-11T05:18:02.905Z,52.59
2016-05-11T05:19:03.112Z,52.2
2016-05-11T05:20:02.849Z,52.4
2016-05-11T05:21:02.867Z,53.19
2016-05-11T05:22:02.791Z,53
2016-05-11T05:23:02.763Z,53.86
2016-05-11T05:24:02.718Z,53.28
2016-05-11T05:25:02.707Z,52.14
2016-05-11T05:26:02.661Z,52.23
2016-05-11T05:27:02.634Z,52.23
2016-05-11T05:28:02.604Z,52.42
2016-05-11T05:29:02.592Z,48.88
2016-05-11T05:30:02.562Z,48.78
2016-05-11T05:31:02.520Z,47.27
2016-05-11T05:32:02.490Z,47.08
2016-05-11T05:33:02.446Z,46.31
2016-05-11T05:34:02.418Z,46.03
2016-05-11T05:35:02.389Z,45.83
2016-05-11T05:36:02.361Z,45.67
2016-05-11T05:37:02.331Z,44.9
2016-05-11T05:38:02.303Z,44.9
2016-05-11T05:39:02.275Z,44.42
2016-05-11T05:40:02.247Z,43.65
2016-05-11T05:41:02.217Z,43.46
2016-05-11T05:42:02.189Z,42.43
2016-05-11T05:43:02.161Z,42.13
2016-05-11T05:44:02.132Z,41.29
2016-05-11T05:45:02.103Z,40.14
2016-05-11T05:46:02.075Z,39.31
2016-05-11T05:47:02.046Z,37.97
2016-05-11T05:48:02.018Z,37.68
2016-05-11T05:49:01.989Z,37.02
2016-05-11T05:50:01.961Z,36.56
2016-05-11T05:51:01.932Z,36.27
2016-05-11T05:52:01.904Z,35.62
2016-05-11T05:53:01.890Z,35.33
2016-05-11T05:54:01.862Z,34.86
2016-05-11T05:55:01.834Z,34.77
2016-05-11T05:56:01.804Z,35.06
2016-05-11T05:57:01.776Z,35.64
2016-05-11T05:58:01.748Z,36.79
2016-05-11T05:59:01.719Z,38.62
2016-05-11T06:00:01.706Z,39.39
2016-05-11T06:01:01.725Z,39.95
2016-05-11T06:02:01.648Z,40.34
2016-05-11T06:03:01.621Z,40.24
2016-05-11T06:04:01.592Z,41.01
2016-05-11T06:05:01.564Z,41.11
2016-05-11T06:06:01.534Z,41.59
2016-05-11T06:07:01.506Z,41.49
2016-05-11T06:08:01.494Z,41.39
2016-05-11T06:09:01.464Z,41.01
2016-05-11T06:10:01.437Z,41.39
2016-05-11T06:11:01.408Z,41.49
2016-05-11T06:12:01.379Z,41.78
2016-05-11T06:13:01.351Z,42.07
2016-05-11T06:14:01.338Z,40.91
2016-05-11T06:15:01.294Z,40.24
2016-05-11T06:16:01.265Z,39.95
2016-05-11T06:17:01.252Z,39.74
2016-05-11T06:18:01.224Z,39.06
2016-05-11T06:19:01.194Z,40.05
2016-05-11T06:20:02.792Z,39.56
2016-05-11T06:21:02.856Z,39.66
2016-05-11T06:22:01.437Z,39.76
2016-05-11T06:23:02.066Z,40.24
2016-05-11T06:24:01.130Z,40.24
2016-05-11T06:25:01.039Z,40.34
2016-05-11T06:26:03.463Z,40.34
2016-05-11T06:27:01.232Z,40.81
2016-05-11T06:28:00.954Z,41.97
2016-05-11T06:29:00.926Z,41.56
2016-05-11T06:30:00.912Z,41.59
2016-05-11T06:31:00.899Z,41.68
2016-05-11T06:32:00.854Z,41.01
2016-05-11T06:33:00.827Z,41.3
2016-05-11T06:34:00.798Z,41.01
2016-05-11T06:35:00.770Z,41.03
2016-05-11T06:36:00.741Z,41.03
2016-05-11T06:37:00.728Z,41.13
2016-05-11T06:38:00.700Z,40.45
2016-05-11T06:39:00.670Z,40.47
2016-05-11T06:40:00.642Z,39.99
2016-05-11T06:41:00.629Z,39.53
2016-05-11T06:42:00.585Z,39.14
2016-05-11T06:43:00.572Z,39.84
2016-05-11T06:44:00.543Z,39.16
2016-05-11T06:45:00.514Z,39.16
2016-05-11T06:46:00.487Z,38.51
2016-05-11T06:47:00.458Z,38.89
2016-05-11T06:48:00.430Z,39.09
2016-05-11T06:49:00.416Z,38.31
2016-05-11T06:50:00.388Z,38.53
2016-05-11T06:51:00.360Z,38.14
2016-05-11T06:52:01.190Z,38.04
2016-05-11T06:53:01.115Z,38.14
2016-05-11T06:54:01.086Z,37.77
2016-05-11T06:55:00.432Z,37.67
2016-05-11T06:56:01.044Z,37.38
2016-05-11T06:57:01.016Z,37.38
2016-05-11T06:58:00.987Z,36.63
2016-05-11T06:59:00.959Z,37.21
2016-05-11T07:00:00.962Z,37.02
2016-05-11T07:01:00.933Z,37.02
2016-05-11T07:02:00.905Z,36.9
2016-05-11T07:03:00.875Z,36.82
2016-05-11T07:04:00.848Z,36.92
2016-05-11T07:05:00.819Z,36.9
2016-05-11T07:06:00.790Z,36.63
2016-05-11T07:07:00.762Z,37
2016-05-11T07:08:00.748Z,37.12
2016-05-11T07:09:00.720Z,36.92
2016-05-11T07:10:00.707Z,37.02
2016-05-11T07:11:00.678Z,36.72
2016-05-11T07:12:00.650Z,36.24
2016-05-11T07:13:00.621Z,35
2016-05-11T07:14:00.609Z,33.59
2016-05-11T07:15:00.595Z,32.06
2016-05-11T07:16:01.052Z,30.24
2016-05-11T07:16:59.913Z,28.64
2016-05-11T07:18:00.510Z,26.25
2016-05-11T07:19:00.481Z,25.01
2016-05-11T07:20:00.468Z,24.35
2016-05-11T07:21:00.440Z,23.19
2016-05-11T07:22:00.427Z,22.03
2016-05-11T07:23:00.398Z,20.51
2016-05-11T07:24:00.385Z,18.96
2016-05-11T07:25:00.357Z,17.41
2016-05-11T07:26:00.343Z,16.06
2016-05-11T07:27:00.316Z,14.61
2016-05-11T07:28:00.319Z,14.22
2016-05-11T07:29:00.290Z,13.54
2016-05-11T07:30:00.260Z,13.26
2016-05-11T07:30:59.638Z,12.58
2016-05-11T07:31:59.610Z,12.18
2016-05-11T07:33:00.206Z,11.69
2016-05-11T07:34:00.193Z,10.81
2016-05-11T07:35:00.181Z,10.71
2016-05-11T07:35:59.527Z,10.91
2016-05-11T07:37:00.139Z,10.61
2016-05-11T07:38:00.126Z,10.32
2016-05-11T07:39:00.114Z,10.52
2016-05-11T07:40:00.101Z,11.11
2016-05-11T07:41:00.619Z,11.21
2016-05-11T07:42:00.059Z,11.7
2016-05-11T07:43:00.046Z,11
2016-05-11T07:44:00.033Z,10.11
2016-05-11T07:45:00.067Z,10.69
2016-05-11T07:46:00.867Z,11.08
2016-05-11T07:46:59.979Z,12.73
2016-05-11T07:47:59.341Z,15.04
2016-05-11T07:48:59.937Z,17.25
2016-05-11T07:49:59.939Z,18.58
2016-05-11T07:51:00.286Z,18.95
2016-05-11T07:51:59.257Z,19.73
2016-05-11T07:52:59.244Z,20.6
2016-05-11T07:53:59.858Z,21.37
2016-05-11T07:54:59.844Z,21.65
2016-05-11T07:55:59.878Z,21.16
2016-05-11T07:56:59.802Z,20.68
2016-05-11T07:57:59.773Z,21.05
2016-05-11T07:58:59.761Z,21.04
2016-05-11T07:59:59.733Z,21.25
2016-05-11T08:00:59.751Z,21.65
2016-05-11T08:01:59.707Z,20.78
2016-05-11T08:02:59.678Z,19.63
2016-05-11T08:03:59.665Z,19.73
2016-05-11T08:04:59.012Z,19.25
2016-05-11T08:05:59.624Z,18.68
2016-05-11T08:06:59.610Z,18.96
2016-05-11T08:07:59.582Z,19.93
2016-05-11T08:08:59.569Z,20.8
2016-05-11T08:09:58.915Z,21.28
2016-05-11T08:10:59.543Z,21.47
2016-05-11T08:11:59.499Z,21.17
2016-05-11T08:12:58.861Z,21.47
2016-05-11T08:13:59.473Z,20.99
2016-05-11T08:14:58.867Z,21.27
2016-05-11T08:15:59.025Z,21.37
2016-05-11T08:16:58.794Z,21.28
2016-05-11T08:17:59.406Z,21.28
2016-05-11T08:18:58.736Z,22.05
2016-05-11T08:19:59.333Z,22.42
2016-05-11T08:20:59.320Z,22.12
2016-05-11T08:21:58.666Z,22.6
2016-05-11T08:22:59.294Z,23.57
2016-05-11T08:23:59.250Z,23.47
2016-05-11T08:24:59.238Z,22.69
2016-05-11T08:25:59.255Z,22.61
2016-05-11T08:26:59.196Z,21.26
2016-05-11T08:27:59.183Z,21.65
2016-05-11T08:28:59.138Z,21.36
2016-05-11T08:29:59.126Z,20.78
2016-05-11T08:30:59.160Z,20.59
2016-05-11T08:31:59.146Z,20.59
2016-05-11T08:32:59.055Z,20.21
2016-05-11T08:33:59.043Z,21.28
2016-05-11T08:34:59.014Z,22.24
2016-05-11T08:35:59.063Z,22.33
2016-05-11T08:36:58.973Z,22.33
2016-05-11T08:37:58.318Z,21.56
2016-05-11T08:38:58.306Z,20.4
2016-05-11T08:39:58.278Z,19.65
2016-05-11T08:40:58.890Z,18.88
2016-05-11T08:41:58.876Z,18.03
2016-05-11T08:42:58.848Z,17.25
2016-05-11T08:43:58.835Z,17.35
2016-05-11T08:44:58.822Z,17.93
2016-05-11T08:45:58.794Z,18.98
2016-05-11T08:46:58.140Z,19.84
2016-05-11T08:47:58.299Z,21.29
2016-05-11T08:48:58.740Z,22.54
2016-05-11T08:49:58.086Z,22.81
2016-05-11T08:50:58.682Z,22.72
2016-05-11T08:51:58.669Z,23.86
2016-05-11T08:52:58.641Z,24.05
2016-05-11T08:53:58.627Z,24.05
2016-05-11T08:54:58.614Z,24.92
2016-05-11T08:55:58.586Z,25.1
2016-05-11T08:56:58.558Z,25.38
2016-05-11T08:57:58.544Z,26.73
2016-05-11T08:58:57.891Z,27.7
2016-05-11T08:59:58.503Z,28.26
2016-05-11T09:00:58.740Z,28.83
2016-05-11T09:01:58.446Z,28.72
2016-05-11T09:02:57.793Z,29.01
2016-05-11T09:03:58.405Z,28.81
2016-05-11T09:04:58.407Z,29.78
2016-05-11T09:05:57.737Z,29.78
2016-05-11T09:06:58.351Z,29.88
2016-05-11T09:07:58.321Z,29.49
2016-05-11T09:08:58.308Z,29.59
2016-05-11T09:09:58.280Z,29.88
2016-05-11T09:10:58.251Z,30.07
2016-05-11T09:11:57.598Z,30.55
2016-05-11T09:12:58.210Z,30.85
2016-05-11T09:13:58.181Z,30.36
2016-05-11T09:14:58.153Z,30.65
2016-05-11T09:15:58.124Z,30.27
2016-05-11T09:16:58.111Z,29.78
2016-05-11T09:17:58.083Z,29.7
2016-05-11T09:18:58.053Z,29.9
2016-05-11T09:19:58.057Z,29.9
2016-05-11T09:20:58.028Z,29.5
2016-05-11T09:21:57.359Z,29.6
2016-05-11T09:22:57.956Z,28.83
2016-05-11T09:23:57.942Z,27.79
2016-05-11T09:24:57.914Z,26.84
2016-05-11T09:25:57.902Z,25.6
2016-05-11T09:26:57.872Z,24.46
2016-05-11T09:27:57.860Z,23.22
2016-05-11T09:28:57.831Z,22.47
2016-05-11T09:29:57.802Z,21.5
2016-05-11T09:30:57.774Z,21.5
2016-05-11T09:31:57.761Z,21.31
2016-05-11T09:32:57.748Z,21.5
2016-05-11T09:33:57.766Z,22.47
2016-05-11T09:34:57.722Z,22.94
2016-05-11T09:35:57.678Z,22.74
2016-05-11T09:36:57.649Z,24.1
2016-05-11T09:37:56.995Z,24.38
2016-05-11T09:38:57.608Z,25.43
2016-05-11T09:39:57.580Z,25.89
2016-05-11T09:40:57.567Z,25.79
2016-05-11T09:41:57.554Z,24.65
2016-05-11T09:42:57.525Z,24.66
2016-05-11T09:43:56.871Z,24.77
2016-05-11T09:44:56.842Z,24.08
2016-05-11T09:45:57.673Z,23.8
2016-05-11T09:46:57.426Z,23.8
2016-05-11T09:47:57.414Z,24.19
2016-05-11T09:48:57.384Z,25.26
2016-05-11T09:49:57.372Z,25.74
2016-05-11T09:50:57.359Z,26.11
2016-05-11T09:51:57.331Z,26.1
2016-05-11T09:52:57.302Z,25.82
2016-05-11T09:53:57.273Z,25.53
2016-05-11T09:54:57.260Z,25.73
2016-05-11T09:55:57.247Z,26.2
2016-05-11T09:56:57.219Z,26.09
2016-05-11T09:57:57.206Z,26.38
2016-05-11T09:58:57.177Z,26.48
2016-05-11T09:59:57.149Z,26.48
2016-05-11T10:00:57.729Z,26.57
2016-05-11T10:01:57.107Z,26.75
2016-05-11T10:02:57.094Z,27.53
2016-05-11T10:03:57.065Z,28.32
2016-05-11T10:04:57.038Z,28.13
2016-05-11T10:05:57.024Z,27.64
2016-05-11T10:06:56.355Z,27.82
2016-05-11T10:07:56.968Z,28.11
2016-05-11T10:08:56.954Z,28.02
2016-05-11T10:09:56.926Z,28.4
2016-05-11T10:10:56.913Z,29.08
2016-05-11T10:11:56.900Z,28.98
2016-05-11T10:12:56.871Z,29.37
2016-05-11T10:13:56.843Z,29.06
2016-05-11T10:14:56.814Z,29.16
2016-05-11T10:15:56.973Z,28
2016-05-11T10:16:56.773Z,28.39
2016-05-11T10:17:56.759Z,28.68
2016-05-11T10:18:56.091Z,29.16
2016-05-11T10:19:56.718Z,29.36
2016-05-11T10:20:56.675Z,29.64
2016-05-11T10:21:56.661Z,29.92
2016-05-11T10:22:56.632Z,30.31
2016-05-11T10:23:56.620Z,30.31
2016-05-11T10:24:56.591Z,30.51
2016-05-11T10:25:56.563Z,30.69
2016-05-11T10:26:56.534Z,30.51
2016-05-11T10:27:55.880Z,30.02
2016-05-11T10:28:56.492Z,29.34
2016-05-11T10:29:55.855Z,29.55
2016-05-11T10:30:56.466Z,28.49
2016-05-11T10:32:43.486Z,27.82
2016-05-11T10:32:56.410Z,28.03
2016-05-11T10:33:56.381Z,28.13
2016-05-11T10:34:56.352Z,28.32
2016-05-11T10:35:56.325Z,28.22
2016-05-11T10:36:56.310Z,27.94
2016-05-11T10:37:56.299Z,27.56
2016-05-11T10:38:56.269Z,27.28
2016-05-11T10:39:56.241Z,26.81
2016-05-11T10:40:55.585Z,25.93
2016-05-11T10:41:56.197Z,25.35
2016-05-11T10:42:56.169Z,26.01
2016-05-11T10:43:55.530Z,26.31
2016-05-11T10:44:55.486Z,26.4
2016-05-11T10:45:56.082Z,26.49
2016-05-11T10:46:55.445Z,26.49
2016-05-11T10:47:55.415Z,26.5
2016-05-11T10:48:56.843Z,26.6
2016-05-11T10:49:55.375Z,26.4
2016-05-11T10:50:56.003Z,25.92
2016-05-11T10:51:55.958Z,26.22
2016-05-11T10:52:55.945Z,26.03
2016-05-11T10:53:55.917Z,25.84
2016-05-11T10:54:55.889Z,25.64
2016-05-11T10:55:55.875Z,25.74
2016-05-11T10:56:55.847Z,25.82
2016-05-11T10:57:55.208Z,26.21
2016-05-11T10:58:55.805Z,26.31
2016-05-11T10:59:55.777Z,26.89
2016-05-11T11:00:55.795Z,26.5
2016-05-11T11:01:55.735Z,27.26
2016-05-11T11:02:55.081Z,27.94
2016-05-11T11:03:55.709Z,27.93
2016-05-11T11:04:55.666Z,28.5
2016-05-11T11:05:55.652Z,28.89
2016-05-11T11:06:55.624Z,28.98
2016-05-11T11:07:55.595Z,28.89
2016-05-11T11:08:55.582Z,28.89
2016-05-11T11:09:55.554Z,29.27
2016-05-11T11:10:55.540Z,29.37
2016-05-11T11:11:55.513Z,29.27
2016-05-11T11:12:55.483Z,28.97
2016-05-11T11:13:55.517Z,30.04
2016-05-11T11:14:55.443Z,30.13
2016-05-11T11:15:54.788Z,30.41
2016-05-11T11:16:55.400Z,30.79
2016-05-11T11:17:55.371Z,30.99
2016-05-11T11:18:55.360Z,31.18
2016-05-11T11:19:55.331Z,31.28
2016-05-11T11:20:55.301Z,31.01
2016-05-11T11:21:55.274Z,30.99
2016-05-11T11:22:54.729Z,31.01
2016-05-11T11:23:55.232Z,29.92
2016-05-11T11:24:55.203Z,30.41
2016-05-11T11:25:55.175Z,30.41
2016-05-11T11:26:55.162Z,30.21
2016-05-11T11:27:54.508Z,30.21
2016-05-11T11:28:55.120Z,30.11
2016-05-11T11:29:55.092Z,30.11
2016-05-11T11:30:54.438Z,30.69
2016-05-11T11:31:55.097Z,30.79
2016-05-11T11:32:55.022Z,30.51
2016-05-11T11:33:54.978Z,30.6
2016-05-11T11:34:54.964Z,30.89
2016-05-11T11:35:54.952Z,31.28
2016-05-11T11:36:54.922Z,31.09
2016-05-11T11:37:54.285Z,31.37
2016-05-11T11:38:54.882Z,31.67
2016-05-11T11:39:54.852Z,32.06
2016-05-11T11:40:54.824Z,32.33
2016-05-11T11:41:54.811Z,32.42
2016-05-11T11:42:54.783Z,32.62
2016-05-11T11:43:54.770Z,32.81
2016-05-11T11:44:54.101Z,32.91
2016-05-11T11:45:54.697Z,32.81
2016-05-11T11:46:54.685Z,33.1
2016-05-11T11:47:54.656Z,33.1
2016-05-11T11:48:54.065Z,32.81
2016-05-11T11:49:54.630Z,32.91
2016-05-11T11:50:54.585Z,32.71
2016-05-11T11:51:54.619Z,32.52
2016-05-11T11:52:53.904Z,32.42
2016-05-11T11:53:54.515Z,32.81
2016-05-11T11:54:54.487Z,32.81
2016-05-11T11:55:54.458Z,32.04
2016-05-11T11:56:54.431Z,32.04
2016-05-11T11:57:54.433Z,32.33
2016-05-11T11:58:54.388Z,32.12
2016-05-11T11:59:54.376Z,32.41
2016-05-11T12:00:53.770Z,32.12
2016-05-11T12:01:54.303Z,32.41
2016-05-11T12:02:54.305Z,32.87
2016-05-11T12:03:53.464Z,33.45
2016-05-11T12:04:53.436Z,33.65
2016-05-11T12:05:53.422Z,33.45
2016-05-11T12:06:53.394Z,33.26
2016-05-11T12:07:53.366Z,33.65
2016-05-11T12:08:53.353Z,33.83
2016-05-11T12:09:53.324Z,33.94
2016-05-11T12:10:53.343Z,36.63
2016-05-11T12:11:53.283Z,38.95
2016-05-11T12:12:53.239Z,39.41
2016-05-11T12:13:53.210Z,41.05
2016-05-11T12:14:53.197Z,41.03
2016-05-11T12:15:53.168Z,40.57
2016-05-11T12:16:53.140Z,40.07
2016-05-11T12:17:53.127Z,40.17
2016-05-11T12:18:53.098Z,40.28
2016-05-11T12:19:53.070Z,40.77
2016-05-11T12:20:53.041Z,40.75
2016-05-11T12:21:53.029Z,41.13
2016-05-11T12:22:53.000Z,41.03
2016-05-11T12:23:52.971Z,40.55
2016-05-11T12:24:52.943Z,40.36
2016-05-11T12:25:52.929Z,41.11
2016-05-11T12:26:52.901Z,41.11
2016-05-11T12:27:52.873Z,41.4
2016-05-11T12:28:52.845Z,41.4
2016-05-11T12:29:52.815Z,41.3
2016-05-11T12:30:52.803Z,41.5
2016-05-11T12:31:52.774Z,41.6
2016-05-11T12:32:52.745Z,41.2
2016-05-11T12:33:52.717Z,41.2
2016-05-11T12:34:52.688Z,41.13
2016-05-11T12:35:52.675Z,41.23
2016-05-11T12:36:52.647Z,41.13
2016-05-11T12:37:52.644Z,40.84
2016-05-11T12:38:52.662Z,40.55
2016-05-11T12:39:52.681Z,40.96
2016-05-11T12:40:52.716Z,40.47
2016-05-11T12:41:52.734Z,40.96
2016-05-11T12:42:52.752Z,40.96
2016-05-11T12:43:52.725Z,40.57
2016-05-11T12:44:52.713Z,40.69
2016-05-11T12:45:52.701Z,40.28
2016-05-11T12:46:52.706Z,40.28
2016-05-11T12:47:52.687Z,40.57
2016-05-11T12:48:52.665Z,41.25
2016-05-11T12:49:52.643Z,40.67
2016-05-11T12:50:52.636Z,41.93
2016-05-11T12:51:52.614Z,43.16
2016-05-11T12:52:52.589Z,43.52
2016-05-11T12:53:52.563Z,44.59
2016-05-11T12:54:52.551Z,44.97